Flight Track Log - Related Links

Times and Time Zones

All times are in EDT time to prevent confusion due to time zone crossing. See the N146TS flight status page for this flight to view local times or setup timezone preferences in your user account.

Time Position Orientation Groundspeed Altitude Reporting Facility
EDT Latitude Longitude Course Direction KTS MPH feet Rate Location/Type
Mon 04:26:45 PM 42.3667 -71.0167 257° West 95 109 500  Level KA90
Mon 04:28:03 PM 42.3500 -71.0500 236° Southwest 95 109 1,700 913 Climbing KA90
Mon 04:29:03 PM 42.3500 -71.1000 270° West 91 105 2,600 744 Climbing KA90
Mon 04:30:04 PM 42.3500 -71.1167 270° West 101 116 3,200 626 Climbing KA90
Mon 04:30:58 PM 42.3333 -71.1500 236° Southwest 103 119 3,800 474 Climbing KA90
Mon 04:31:58 PM 42.3167 -71.1833 236° Southwest 137 158 4,100 400 Climbing KA90
Mon 04:32:00 PM 42.2568 -71.2818 257° West  Level Estimated
Mon 04:32:58 PM 42.2833 -71.2333 228° Southwest 125 144 4,600  Level KA90
Mon 04:34:04 PM 42.2667 -71.2667 236° Southwest 119 137 5,100 472 Climbing KA90
Mon 04:35:05 PM 42.2667 -71.3167 270° West 119 137 5,600 446 Climbing KA90
Mon 04:36:05 PM 42.2500 -71.3500 236° Southwest 117 135 6,000 211 Climbing KA90
Mon 04:36:59 PM 42.2500 -71.4000 270° West 144 166 6,000  Level KA90
Mon 04:37:33 PM 42.2356 -71.4306 237° Southwest 145 167 6,000  Level Boston Center
Mon 04:37:58 PM 42.2314 -71.4531 256° West 145 167 6,000  Level Boston Center
Mon 04:38:58 PM 42.2214 -71.5036 255° West 136 157 6,000  Level Boston Center
Mon 04:39:59 PM 42.2156 -71.5542 261° West 138 159 6,000  Level Boston Center
Mon 04:41:02 PM 42.2056 -71.6019 254° West 137 158 6,000  Level Boston Center
Mon 04:42:03 PM 42.1956 -71.6525 255° West 135 155 6,000  Level Boston Center
Mon 04:43:03 PM 42.1856 -71.7061 256° West 136 157 6,000  Level Boston Center
Mon 04:44:09 PM 42.1733 -71.7567 252° West 138 159 6,000  Level Boston Center
Mon 04:45:10 PM 42.1589 -71.8072 249° West 139 160 6,000  Level Boston Center
Mon 04:46:11 PM 42.1489 -71.8575 255° West 137 158 6,000  Level Boston Center
Mon 04:47:12 PM 42.1367 -71.9081 252° West 137 158 6,000  Level Boston Center
Mon 04:48:12 PM 42.1222 -71.9558 248° West 139 160 6,000  Level Boston Center
Mon 04:49:15 PM 42.1078 -72.0036 248° West 136 157 6,000  Level Boston Center
Mon 04:50:16 PM 42.0892 -72.0456 239° Southwest 142 163 6,000  Level Boston Center
Mon 04:51:16 PM 42.0581 -72.0794 219° Southwest 138 159 6,000  Level Boston Center
Mon 04:52:17 PM 42.0289 -72.1158 223° Southwest 142 163 6,000  Level Boston Center
Mon 04:53:18 PM 41.9978 -72.1525 221° Southwest 143 165 6,000  Level Boston Center
Mon 04:54:18 PM 41.9667 -72.1831 216° Southwest 142 163 6,000  Level Boston Center
Mon 04:55:21 PM 41.9356 -72.2225 223° Southwest 148 170 6,000  Level Boston Center
Mon 04:56:28 PM 41.9022 -72.2617 221° Southwest 143 165 6,000  Level Boston Center
Mon 04:57:28 PM 41.8731 -72.2950 220° Southwest 142 163 6,000  Level Boston Center
Mon 04:58:29 PM 41.8417 -72.3286 219° Southwest 140 161 6,000  Level Boston Center
Mon 04:59:29 PM 41.8044 -72.3539 207° Southwest 144 166 6,000  Level Boston Center
Mon 05:00:30 PM 41.7689 -72.3789 208° Southwest 142 163 6,000  Level Boston Center
Mon 05:01:31 PM 41.7336 -72.4039 208° Southwest 144 166 6,000 -50 Level Boston Center
Mon 05:02:31 PM 41.6981 -72.4289 208° Southwest 144 166 5,900 -194 Descending Boston Center
Mon 05:03:35 PM 41.6794 -72.4761 242° Southwest 148 170 5,600 -290 Descending Boston Center
Mon 05:04:35 PM 41.6625 -72.5233 244° Southwest 147 169 5,300 -261 Descending Boston Center
Mon 05:05:30 PM 41.6481 -72.5733 249° West 148 170 5,100 -259 Descending Boston Center
Mon 05:06:31 PM 41.6333 -72.6233 249° West 147 169 4,800 -298 Descending Boston Center
Mon 05:07:31 PM 41.6167 -72.6789 248° West 150 173 4,500 -149 Descending Boston Center
Mon 05:08:32 PM 41.6039 -72.7289 251° West 137 158 4,500  Level Boston Center
Mon 05:09:34 PM 41.5914 -72.7731 249° West 137 158 4,500  Level Boston Center
Mon 05:10:34 PM 41.5744 -72.8203 244° Southwest 137 158 4,500  Level Boston Center
Mon 05:11:35 PM 41.5597 -72.8700 248° West 149 171 4,500  Level Boston Center
Mon 05:13:08 PM 41.5333 -72.9500 246° West 152 175 4,500  Level New York TRACON
Mon 05:14:08 PM 41.5167 -73.0000 246° West 153 176 4,500  Level New York TRACON
Mon 05:15:08 PM 41.5000 -73.0500 246° West 146 168 4,500  Level New York TRACON
Mon 05:16:14 PM 41.4833 -73.1000 246° West 156 180 4,500  Level New York TRACON
Mon 05:17:08 PM 41.4667 -73.1500 246° West 150 173 4,500  Level New York TRACON
Mon 05:19:00 PM 41.4365 -73.2296 249° West  Level FlightAware Approximate
Mon 05:26:00 PM 41.3667 -73.4667 249° West  Level FlightAware Approximate
Mon 05:27:00 PM 41.3715 -73.4822 249° West  Level Estimated
Mon 05:28:00 PM 41.3715 -73.4822 249° West  Level Estimated
Mon 05:29:00 PM 41.3715 -73.4822 249° West  Level Estimated
Mon 05:30:00 PM 41.3715 -73.4822 249° West  Level Estimated
Mon 05:31:00 PM 41.3715 -73.4822 249° West  Level Estimated
Mon 05:32:00 PM 41.3715 -73.4822 249° West  Level Estimated
Mon 05:33:00 PM 41.3715 -73.4822 249° West  Level Estimated

Login

Don't have an account? Register now (free) for customized features, flight alerts, and more!